»·PEaware :: N373EB KSAC-KWHP

N373EB :: KSAC-KWHP

FLIGHT INFORMATION

Flight Status: Arrived
Operator: Privately registered:
United States
More flights under this callsign
Pilot: Peder R. (40111)
Aircraft: BEECH AIRCRAFT DEBONAIR BONANZA
(BE33)
More flights by this aircraft type
Origin: KSAC Sacramento Executive
United States
Destination: KWHP Whiteman
United States
More flights between these airports :: More routes between these airports
Route: SAC V23 EBTUW FRAME V23 VAZCU
File this flight plan on PilotEdge
Remarks:
Altitude:
(Current/Filed)
11,000ft
Speed:
(Current/Filed)
155kts
Departed: 24-Jul-23 02:16 PM
Arrived: 24-Jul-23 04:19 PM
Distance/Time
Traveled:
295nm/2:02
Distance/Time
To Go:
Arrived

Flight Plot

Page will automatically refresh every two minutes.

Flight plan parsing failed; only flown route is shown


Map Options




Map Legend


Flown Route
Filed Route
Departure Airport
Arrival Airport
Navaid (VOR, NDB)
Fix

Horizontal Profiles

Position Reports

Time Latitude Longitude Heading Altitude Ground
Speed
24-Jul-23 13:51 38.515483 -121.496314 225 21ft 0kts
24-Jul-23 13:52 38.515483 -121.496314 225 21ft 0kts
24-Jul-23 13:53 38.515483 -121.496314 225 21ft 0kts
24-Jul-23 13:54 38.515483 -121.496314 225 21ft 0kts
24-Jul-23 13:55 38.515483 -121.496314 225 21ft 0kts
24-Jul-23 14:00 38.515483 -121.496314 225 21ft 0kts
24-Jul-23 14:01 38.515483 -121.496314 225 21ft 0kts
24-Jul-23 14:05 38.515483 -121.496314 225 21ft 0kts
24-Jul-23 14:06 38.515483 -121.496314 225 21ft 0kts
24-Jul-23 14:07 38.515465 -121.496338 225 21ft 0kts
24-Jul-23 14:08 38.514872 -121.495668 133 20ft 7kts
24-Jul-23 14:09 38.513744 -121.495316 39 20ft 7kts
24-Jul-23 14:10 38.516117 -121.493345 32 22ft 10kts
24-Jul-23 14:11 38.518795 -121.491122 32 23ft 11kts
24-Jul-23 14:12 38.519374 -121.490540 174 23ft 0kts
24-Jul-23 14:13 38.519374 -121.490540 174 23ft 0kts
24-Jul-23 14:14 38.519191 -121.490366 106 23ft 0kts
24-Jul-23 14:15 38.517084 -121.490833 212 21ft 55kts
24-Jul-23 14:16 38.496070 -121.502457 158 830ft 94kts
24-Jul-23 14:17 38.471211 -121.493768 161 1636ft 93kts
24-Jul-23 14:18 38.444995 -121.485077 165 2302ft 107kts
24-Jul-23 14:19 38.419064 -121.468589 133 3128ft 106kts
24-Jul-23 14:20 38.398442 -121.440907 131 3946ft 107kts
24-Jul-23 14:21 38.377951 -121.412479 131 4741ft 109kts
24-Jul-23 14:22 38.356810 -121.383937 134 5507ft 110kts
24-Jul-23 14:23 38.335361 -121.355219 131 6223ft 112kts
24-Jul-23 14:24 38.313484 -121.326122 130 6888ft 113kts
24-Jul-23 14:25 38.291472 -121.296524 130 7487ft 115kts
24-Jul-23 14:26 38.268779 -121.266920 132 8045ft 117kts
24-Jul-23 14:28 38.246035 -121.236365 130 8562ft 118kts
24-Jul-23 14:29 38.223432 -121.205298 129 9037ft 119kts
24-Jul-23 14:30 38.200635 -121.174014 131 9482ft 120kts
24-Jul-23 14:31 38.177248 -121.142435 127 9898ft 122kts
24-Jul-23 14:32 38.152895 -121.109855 132 10246ft 128kts
24-Jul-23 14:33 38.127667 -121.076599 128 10617ft 130kts
24-Jul-23 14:34 38.102330 -121.043504 131 10987ft 131kts
24-Jul-23 14:35 38.075126 -121.007852 135 11051ft 150kts
24-Jul-23 14:36 38.042095 -120.972685 137 11072ft 160kts
24-Jul-23 14:37 38.007439 -120.935700 138 11009ft 162kts
24-Jul-23 14:38 37.972863 -120.899313 139 11007ft 161kts
24-Jul-23 14:39 37.937396 -120.865040 138 11039ft 158kts
24-Jul-23 14:40 37.902857 -120.829625 139 11060ft 158kts
24-Jul-23 14:41 37.867647 -120.795544 140 11056ft 158kts
24-Jul-23 14:42 37.833132 -120.759958 139 11063ft 158kts
24-Jul-23 14:43 37.798819 -120.723867 140 11062ft 159kts
24-Jul-23 14:44 37.764506 -120.688010 140 11047ft 159kts
24-Jul-23 14:45 37.730437 -120.655118 139 11043ft 159kts
24-Jul-23 14:46 37.694737 -120.619890 138 11039ft 159kts
24-Jul-23 14:47 37.659152 -120.583118 137 11027ft 159kts
24-Jul-23 14:48 37.624262 -120.547642 141 11018ft 160kts
24-Jul-23 14:49 37.588898 -120.513073 139 11007ft 160kts
24-Jul-23 14:50 37.553469 -120.478564 138 10994ft 160kts
24-Jul-23 14:51 37.518859 -120.443166 139 11020ft 158kts
24-Jul-23 14:52 37.484154 -120.407611 137 10998ft 159kts
24-Jul-23 14:53 37.450564 -120.371449 142 11031ft 157kts
24-Jul-23 14:54 37.414988 -120.337491 139 11016ft 159kts
24-Jul-23 14:54 37.385328 -120.309714 143 11038ft 158kts
24-Jul-23 14:55 37.350233 -120.275393 140 11052ft 158kts
24-Jul-23 14:57 37.308518 -120.236560 145 11060ft 159kts
24-Jul-23 14:58 37.271307 -120.205779 145 11049ft 160kts
24-Jul-23 14:58 37.239802 -120.180462 147 11039ft 160kts
24-Jul-23 14:59 37.201909 -120.149782 145 11002ft 162kts
24-Jul-23 15:00 37.164587 -120.118344 145 10992ft 161kts
24-Jul-23 15:01 37.127158 -120.087531 147 10999ft 160kts
24-Jul-23 15:03 37.083289 -120.050939 144 11003ft 159kts
24-Jul-23 15:03 37.051982 -120.026095 145 11020ft 158kts
24-Jul-23 15:04 37.014209 -119.997588 146 11037ft 156kts
24-Jul-23 15:05 36.978150 -119.967405 145 11038ft 156kts
24-Jul-23 15:06 36.941779 -119.938401 143 10996ft 155kts
24-Jul-23 15:07 36.905207 -119.909239 143 10974ft 154kts
24-Jul-23 15:08 36.869934 -119.879077 145 10986ft 153kts
24-Jul-23 15:09 36.834351 -119.849987 144 11000ft 152kts
24-Jul-23 15:10 36.798609 -119.821138 145 11000ft 153kts
24-Jul-23 15:11 36.762482 -119.792665 145 11000ft 153kts
24-Jul-23 15:12 36.726412 -119.764220 145 11000ft 153kts
24-Jul-23 15:13 36.690241 -119.735689 145 11000ft 153kts
24-Jul-23 15:14 36.654257 -119.707304 145 11000ft 153kts
24-Jul-23 15:15 36.617947 -119.678654 145 11000ft 153kts
24-Jul-23 15:16 36.578794 -119.656584 155 11000ft 154kts
24-Jul-23 15:17 36.538910 -119.636416 155 11000ft 154kts
24-Jul-23 15:18 36.499090 -119.616255 155 11000ft 154kts
24-Jul-23 15:19 36.459386 -119.595363 154 11000ft 153kts
24-Jul-23 15:20 36.419764 -119.574228 154 10999ft 153kts
24-Jul-23 15:21 36.380254 -119.553151 154 10999ft 153kts
24-Jul-23 15:22 36.340498 -119.532478 155 10999ft 154kts
24-Jul-23 15:23 36.300754 -119.512310 155 10999ft 154kts
24-Jul-23 15:24 36.260816 -119.492026 155 10999ft 154kts
24-Jul-23 15:25 36.221040 -119.471821 155 10999ft 154kts
24-Jul-23 15:26 36.181098 -119.452304 153 11001ft 153kts
24-Jul-23 15:27 36.142135 -119.429925 155 11004ft 154kts
24-Jul-23 15:28 36.101852 -119.410905 155 11018ft 153kts
24-Jul-23 15:29 36.062297 -119.390743 154 11039ft 153kts
24-Jul-23 15:30 36.022704 -119.370732 155 11065ft 152kts
24-Jul-23 15:31 35.983758 -119.349390 158 11080ft 153kts
24-Jul-23 15:32 35.943762 -119.329945 156 11100ft 153kts
24-Jul-23 15:33 35.903386 -119.310258 155 11025ft 157kts
24-Jul-23 15:34 35.863080 -119.288577 154 11001ft 156kts
24-Jul-23 15:35 35.822769 -119.268009 155 11010ft 154kts
24-Jul-23 15:36 35.782974 -119.246709 152 10991ft 155kts
24-Jul-23 15:37 35.743146 -119.226025 156 11013ft 154kts
24-Jul-23 15:38 35.702652 -119.206927 155 11015ft 154kts
24-Jul-23 15:39 35.662960 -119.186133 154 11020ft 154kts
24-Jul-23 15:40 35.622734 -119.166532 155 11025ft 154kts
24-Jul-23 15:41 35.583122 -119.145733 154 11027ft 154kts
24-Jul-23 15:42 35.542965 -119.126081 155 11027ft 154kts
24-Jul-23 15:43 35.502474 -119.106404 156 11026ft 154kts
24-Jul-23 15:44 35.461215 -119.089980 159 11027ft 154kts
24-Jul-23 15:45 35.419746 -119.074229 159 11009ft 155kts
24-Jul-23 15:46 35.377941 -119.059392 159 11011ft 155kts
24-Jul-23 15:47 35.336123 -119.044234 159 11008ft 155kts
24-Jul-23 15:48 35.294170 -119.030112 163 11010ft 155kts
24-Jul-23 15:49 35.252345 -119.015466 160 11008ft 155kts
24-Jul-23 15:50 35.210626 -119.000666 160 11019ft 155kts
24-Jul-23 15:51 35.168490 -118.986964 161 11028ft 155kts
24-Jul-23 15:52 35.126307 -118.973246 161 11028ft 156kts
24-Jul-23 15:53 35.084461 -118.958485 158 11058ft 155kts
24-Jul-23 15:54 35.042511 -118.943723 163 11093ft 156kts
24-Jul-23 15:55 35.000598 -118.929981 159 11128ft 155kts
24-Jul-23 15:56 34.958575 -118.915818 158 11179ft 154kts
24-Jul-23 15:57 34.916322 -118.902005 158 11128ft 159kts
24-Jul-23 15:58 34.873364 -118.887596 156 11077ft 157kts
24-Jul-23 15:59 34.832039 -118.871234 154 11084ft 153kts
24-Jul-23 16:00 34.791600 -118.855739 149 11109ft 150kts
24-Jul-23 16:01 34.752713 -118.837099 151 11146ft 149kts
24-Jul-23 16:02 34.714187 -118.817968 151 11162ft 148kts
24-Jul-23 16:03 34.676854 -118.798706 152 11180ft 144kts
24-Jul-23 16:04 34.640067 -118.778014 153 11085ft 143kts
24-Jul-23 16:05 34.602645 -118.760891 155 11070ft 141kts
24-Jul-23 16:06 34.566201 -118.742525 153 10842ft 142kts
24-Jul-23 16:07 34.529408 -118.722693 153 9828ft 158kts
24-Jul-23 16:08 34.486480 -118.705196 152 8887ft 158kts
24-Jul-23 16:09 34.446030 -118.683955 148 8061ft 156kts
24-Jul-23 16:10 34.405579 -118.662636 153 7220ft 158kts
24-Jul-23 16:11 34.364331 -118.642090 153 6401ft 161kts
24-Jul-23 16:12 34.338003 -118.604926 117 5905ft 141kts
24-Jul-23 16:13 34.321710 -118.561636 109 5102ft 140kts
24-Jul-23 16:14 34.313100 -118.515846 95 4317ft 139kts
24-Jul-23 16:15 34.310347 -118.471301 111 3547ft 105kts
24-Jul-23 16:16 34.290304 -118.446696 136 2425ft 91kts
24-Jul-23 16:17 34.273264 -118.428224 136 1552ft 76kts
24-Jul-23 16:18 34.259932 -118.414166 140 994ft 39kts
24-Jul-23 16:19 34.259846 -118.412577 13 993ft 2kts

Navigation Log

Ident Type
Flight plan parsing failed, navigation log unavailable